Time;durP1;ratioP1;P1;durP2;ratioP2;P2;SDS_P1;SDS_P2;PMS_P1;PMS_P2;Temp;Humidity;BMP_temperature;BMP_pressure;BME280_temperature;BME280_humidity;BME280_pressure;Samples;Min_cycle;Max_cycle;Signal;HPM_P1;HPM_P2
2022/01/04 00:05:32;;;;;;;92.50;47.67;;;;;;;6.83;60.80;94942.47;4937823;29;20523;-78
2022/01/04 00:07:57;;;;;;;73.53;40.95;;;;;;;6.81;60.46;94941.88;4946668;29;20142;-79
2022/01/04 00:10:26;;;;;;;115.90;57.53;;;;;;;6.89;59.85;94954.59;4948101;29;20056;-79
2022/01/04 00:13:22;;;;;;;108.35;54.28;;;;;;;6.97;60.12;94956.13;4965289;23;20043;-79
2022/01/04 00:15:48;;;;;;;119.65;58.85;;;;;;;6.87;60.23;94946.25;4935776;29;20511;-79
2022/01/04 00:18:17;;;;;;;87.97;45.90;;;;;;;6.77;60.68;94944.09;4940606;29;20031;-79
2022/01/04 00:20:43;;;;;;;72.28;39.92;;;;;;;6.86;61.04;94949.84;4928472;29;20044;-79
2022/01/04 00:23:13;;;;;;;98.80;49.15;;;;;;;6.87;60.79;94961.75;4928582;29;20455;-78
2022/01/04 00:25:56;;;;;;;73.53;37.40;;;;;;;6.92;61.59;94964.50;4946369;29;20043;-80
2022/01/04 00:28:22;;;;;;;84.88;43.75;;;;;;;6.93;60.90;94958.34;4943944;29;20039;-80
2022/01/04 00:30:47;;;;;;;64.95;32.78;;;;;;;6.96;60.46;94965.69;4945295;29;20152;-80
2022/01/04 00:33:13;;;;;;;50.35;25.88;;;;;;;7.00;61.12;94966.88;4947019;28;20105;-80
2022/01/04 00:35:39;;;;;;;58.38;27.65;;;;;;;7.00;60.91;94977.22;4946356;29;20040;-79
2022/01/04 00:38:05;;;;;;;46.88;22.38;;;;;;;6.96;60.04;94983.78;4913769;29;20116;-80
2022/01/04 00:40:33;;;;;;;27.52;16.65;;;;;;;6.98;60.90;94989.53;4900049;29;20464;-80
2022/01/04 00:42:59;;;;;;;33.78;18.42;;;;;;;7.04;60.77;94995.69;4900564;29;20082;-80
2022/01/04 00:45:25;;;;;;;34.45;16.63;;;;;;;6.98;60.46;94991.34;4916313;29;20064;-80
2022/01/04 00:50:21;;;;;;;40.67;18.60;;;;;;;7.02;60.02;94992.53;4920331;29;20424;-80
2022/01/04 00:52:46;;;;;;;48.15;24.90;;;;;;;6.88;59.24;94984.03;4916881;29;20038;-81
2022/01/04 00:55:11;;;;;;;50.47;25.35;;;;;;;6.84;59.69;94975.09;4930887;29;20028;-80
2022/01/04 00:57:37;;;;;;;63.42;30.00;;;;;;;6.79;59.58;94967.94;4899644;29;20035;-80
2022/01/04 01:00:04;;;;;;;73.88;37.17;;;;;;;6.73;59.49;94965.38;4930812;29;20031;-78
2022/01/04 01:02:30;;;;;;;117.57;53.22;;;;;;;6.61;60.16;94967.78;4935106;29;20035;-79
2022/01/04 01:04:58;;;;;;;142.35;64.45;;;;;;;6.52;59.72;94964.66;4933923;29;20043;-80
2022/01/04 01:07:23;;;;;;;114.38;55.10;;;;;;;6.46;60.28;94960.28;4934216;29;20050;-79
2022/01/04 01:10:29;;;;;;;123.60;57.22;;;;;;;6.47;60.01;94961.88;4931687;29;20480;-80
2022/01/04 01:12:37;;;;;;;100.22;45.67;;;;;;;6.39;61.08;94963.88;4951710;29;20122;-80
2022/01/04 01:15:03;;;;;;;100.18;45.88;;;;;;;6.39;61.52;94964.69;4915925;29;20035;-80
2022/01/04 01:17:30;;;;;;;98.75;46.85;;;;;;;6.35;61.41;94960.13;4948665;29;20046;-80
2022/01/04 01:19:58;;;;;;;89.60;41.45;;;;;;;6.31;61.28;94957.91;4931794;29;20050;-80
2022/01/04 01:22:24;;;;;;;53.65;28.77;;;;;;;6.26;62.30;94956.94;4947271;29;20035;-79
2022/01/04 01:24:49;;;;;;;78.57;36.08;;;;;;;6.23;61.77;94954.78;4930562;29;20194;-79
2022/01/04 01:27:15;;;;;;;66.55;32.75;;;;;;;6.22;62.05;94948.03;4933063;29;20034;-79
2022/01/04 01:29:40;;;;;;;67.15;34.13;;;;;;;6.21;61.32;94957.56;4950454;29;20404;-80
2022/01/04 01:32:06;;;;;;;45.22;23.02;;;;;;;6.20;61.84;94955.19;4928457;29;20115;-79
2022/01/04 01:34:31;;;;;;;41.45;21.45;;;;;;;6.18;62.20;94946.81;4916336;29;20039;-78
2022/01/04 01:36:57;;;;;;;33.58;20.60;;;;;;;6.19;62.84;94941.47;4931084;29;20047;-79
2022/01/04 01:39:22;;;;;;;37.80;19.58;;;;;;;6.24;62.78;94956.34;4932698;29;20023;-80
2022/01/04 01:41:48;;;;;;;34.60;19.60;;;;;;;6.25;63.14;94953.56;4932841;29;20529;-80
2022/01/04 01:44:13;;;;;;;33.53;18.60;;;;;;;6.24;63.19;94961.53;4948149;29;20031;-79
2022/01/04 01:46:39;;;;;;;36.65;17.77;;;;;;;6.26;62.48;94962.91;4932303;29;20043;-80
2022/01/04 01:49:04;;;;;;;32.15;15.52;;;;;;;6.26;62.43;94955.16;4930756;29;20035;-80
2022/01/04 01:51:31;;;;;;;24.40;13.82;;;;;;;6.27;62.40;94961.13;4944820;29;20027;-80
2022/01/04 01:53:59;;;;;;;24.83;14.90;;;;;;;6.27;61.21;94955.94;4930259;29;20083;-80
2022/01/04 01:56:24;;;;;;;28.25;16.42;;;;;;;6.17;61.36;94956.34;4928481;29;20027;-80
2022/01/04 01:58:55;;;;;;;31.42;16.20;;;;;;;6.04;61.39;94958.16;4945529;29;20039;-79
2022/01/04 02:01:21;;;;;;;31.25;17.13;;;;;;;5.99;62.19;94951.78;4928678;29;20482;-79
2022/01/04 02:03:46;;;;;;;35.90;19.92;;;;;;;6.01;62.11;94947.22;4915635;29;20039;-79
2022/01/04 02:06:15;;;;;;;45.88;22.25;;;;;;;5.93;61.06;94954.41;4898345;29;20492;-79
2022/01/04 02:08:41;;;;;;;39.70;21.38;;;;;;;5.85;62.08;94952.75;4914900;29;20067;-79
2022/01/04 02:11:06;;;;;;;53.28;26.75;;;;;;;5.81;62.05;94950.78;4912866;29;20028;-79
2022/01/04 02:13:34;;;;;;;54.60;29.63;;;;;;;5.76;62.11;94945.44;4929211;29;20086;-80
2022/01/04 02:16:02;;;;;;;63.05;35.30;;;;;;;5.67;62.23;94950.78;4930401;29;20036;-80
2022/01/04 02:18:28;;;;;;;54.60;30.08;;;;;;;5.66;62.99;94959.50;4915225;29;20099;-80
2022/01/04 02:20:53;;;;;;;60.20;29.75;;;;;;;5.69;62.52;94953.16;4900764;29;20073;-79
2022/01/04 02:23:19;;;;;;;51.70;30.90;;;;;;;5.65;62.60;94954.53;4931615;29;20054;-80
2022/01/04 02:25:44;;;;;;;60.75;33.90;;;;;;;5.61;62.69;94955.94;4915451;29;20031;-80
2022/01/04 02:28:10;;;;;;;57.95;30.42;;;;;;;5.61;62.62;94955.94;4948189;29;20031;-79
2022/01/04 02:30:35;;;;;;;53.10;30.50;;;;;;;5.53;63.70;94953.53;4898756;29;20043;-80
2022/01/04 02:33:01;;;;;;;56.38;31.70;;;;;;;5.49;63.25;94945.41;4947247;29;20405;-79
2022/01/04 02:35:28;;;;;;;63.78;30.77;;;;;;;5.47;63.77;94949.16;4927522;29;20035;-80
2022/01/04 02:37:55;;;;;;;58.42;32.78;;;;;;;5.50;63.14;94948.78;4930399;29;20036;-80
2022/01/04 02:40:26;;;;;;;66.53;36.08;;;;;;;5.48;63.65;94953.34;4930059;29;20400;-80
2022/01/04 02:42:52;;;;;;;74.13;37.47;;;;;;;5.46;63.84;94952.75;4913985;29;20023;-80
2022/01/04 02:45:18;;;;;;;88.90;45.13;;;;;;;5.50;63.56;94941.03;4915269;29;20028;-80
2022/01/04 02:47:44;;;;;;;102.82;53.95;;;;;;;5.37;63.55;94945.22;4929959;29;20486;-80
2022/01/04 02:50:09;;;;;;;89.13;50.60;;;;;;;5.34;63.71;94945.56;4945925;29;20039;-80
2022/01/04 02:52:35;;;;;;;94.18;53.35;;;;;;;5.27;63.32;94939.63;4914184;29;20027;-79
2022/01/04 02:55:13;;;;;;;110.90;55.58;;;;;;;5.25;64.22;94933.88;4930401;29;20471;-80
2022/01/04 02:57:38;;;;;;;99.93;52.15;;;;;;;5.28;64.11;94941.22;4914621;29;20029;-80
2022/01/04 03:00:05;;;;;;;98.22;51.33;;;;;;;5.25;64.48;94928.72;4929011;29;20046;-79
2022/01/04 03:02:31;;;;;;;104.40;54.15;;;;;;;5.30;64.22;94928.91;4945049;29;20059;-79
2022/01/04 03:04:56;;;;;;;121.85;58.95;;;;;;;5.25;63.58;94923.56;4914267;29;20047;-79
2022/01/04 03:07:22;;;;;;;119.03;60.35;;;;;;;5.29;63.31;94918.81;4961070;23;20090;-79
2022/01/04 03:09:47;;;;;;;111.15;52.78;;;;;;;5.28;64.45;94919.78;4924727;29;20044;-80
2022/01/04 03:12:12;;;;;;;123.38;60.53;;;;;;;5.27;64.27;94923.38;4926236;29;20040;-79
2022/01/04 03:14:38;;;;;;;127.88;65.13;;;;;;;5.24;63.40;94921.19;4944941;29;20039;-79
2022/01/04 03:17:04;;;;;;;117.22;63.50;;;;;;;5.16;63.75;94924.72;4945852;29;20027;-79
2022/01/04 03:19:32;;;;;;;115.03;60.22;;;;;;;5.10;63.62;94925.50;4912744;29;20043;-79
2022/01/04 03:21:57;;;;;;;106.70;56.15;;;;;;;5.12;62.89;94926.09;4914505;29;20067;-79
2022/01/04 03:24:23;;;;;;;91.40;47.92;;;;;;;5.10;63.67;94933.25;4929108;29;20050;-79
2022/01/04 03:26:48;;;;;;;88.60;45.38;;;;;;;5.11;65.01;94935.63;4927485;29;20035;-79
2022/01/04 03:29:14;;;;;;;75.90;39.13;;;;;;;5.19;64.52;94926.09;4944829;29;20546;-79
2022/01/04 03:31:40;;;;;;;68.07;36.58;;;;;;;5.21;64.87;94930.09;4935291;29;20431;-78
2022/01/04 03:34:05;;;;;;;59.83;30.23;;;;;;;5.17;64.07;94936.63;4932468;29;20059;-77
2022/01/04 03:36:31;;;;;;;49.65;27.17;;;;;;;5.01;63.40;94939.56;4946396;29;20042;-78
2022/01/04 03:38:57;;;;;;;66.57;30.88;;;;;;;4.96;62.62;94936.75;4932226;29;20066;-78
2022/01/04 03:41:23;;;;;;;88.63;37.78;;;;;;;4.90;63.34;94933.19;4914397;29;20028;-78
2022/01/04 03:43:49;;;;;;;79.85;39.30;;;;;;;4.82;63.13;94947.03;4913040;29;20043;-79
2022/01/04 03:46:15;;;;;;;97.20;46.85;;;;;;;4.82;64.58;94941.88;4897645;29;20035;-79
2022/01/04 03:48:40;;;;;;;91.18;48.03;;;;;;;4.80;64.43;94943.84;4944685;29;20039;-78
2022/01/04 03:51:06;;;;;;;74.28;41.88;;;;;;;4.83;65.03;94945.25;4927477;29;20399;-79
2022/01/04 03:53:32;;;;;;;102.40;53.92;;;;;;;4.87;64.21;94948.22;4897069;29;20035;-80
2022/01/04 03:55:57;;;;;;;101.97;56.83;;;;;;;4.80;64.34;94954.16;4930131;29;20043;-80
2022/01/04 03:58:23;;;;;;;102.38;56.25;;;;;;;4.84;64.70;94954.56;4927087;29;20036;-80
2022/01/04 04:00:50;;;;;;;131.85;69.40;;;;;;;4.85;64.48;94956.16;4896144;29;20040;-79
2022/01/04 04:03:18;;;;;;;136.80;73.45;;;;;;;4.87;64.84;94943.06;4945714;29;20031;-80
2022/01/04 04:05:43;;;;;;;133.90;72.70;;;;;;;4.83;64.21;94943.47;4913325;29;20519;-79
2022/01/04 04:08:09;;;;;;;147.63;70.57;;;;;;;4.79;64.07;94937.09;4930070;29;20039;-79
2022/01/04 04:10:34;;;;;;;144.45;73.70;;;;;;;4.74;65.19;94943.84;4930301;29;20027;-80
2022/01/04 04:13:00;;;;;;;166.35;90.40;;;;;;;4.67;64.90;94943.78;4932345;29;20035;-78
2022/01/04 04:15:32;;;;;;;174.93;102.30;;;;;;;4.63;64.21;94945.16;4932657;29;20059;-80
2022/01/04 04:17:57;;;;;;;252.30;155.20;;;;;;;4.63;63.93;94934.06;4914449;29;20028;-79
2022/01/04 04:20:23;;;;;;;226.75;144.18;;;;;;;4.61;64.70;94938.63;4946400;29;20276;-79
2022/01/04 04:22:48;;;;;;;161.25;103.18;;;;;;;4.65;65.34;94935.47;4930295;29;20031;-80
2022/01/04 04:25:14;;;;;;;116.45;72.28;;;;;;;4.70;65.66;94932.31;4915799;29;20059;-79
2022/01/04 04:27:40;;;;;;;95.55;59.50;;;;;;;4.71;63.86;94947.56;4930339;29;20054;-80
2022/01/04 04:30:06;;;;;;;106.05;69.43;;;;;;;4.63;63.57;94937.44;4914431;29;20042;-80
2022/01/04 04:32:31;;;;;;;119.35;71.00;;;;;;;4.61;63.08;94939.41;4916261;29;20047;-79
2022/01/04 04:34:57;;;;;;;117.97;72.75;;;;;;;4.55;63.97;94945.31;4931859;29;20436;-78
2022/01/04 04:37:23;;;;;;;153.48;87.10;;;;;;;4.50;64.16;94953.63;4901706;29;20110;-79
2022/01/04 04:39:48;;;;;;;152.98;89.40;;;;;;;4.44;63.76;94958.75;4931144;29;20042;-79
2022/01/04 04:42:14;;;;;;;126.70;76.05;;;;;;;4.39;63.74;94966.22;4916407;29;20038;-79
2022/01/04 04:44:39;;;;;;;129.82;77.60;;;;;;;4.40;64.00;94978.13;4927933;29;20068;-80
2022/01/04 04:47:07;;;;;;;107.55;63.28;;;;;;;4.42;64.04;94976.16;4947506;29;20040;-79
2022/01/04 04:49:42;;;;;;;153.35;84.28;;;;;;;4.34;64.82;94973.72;4930287;29;20035;-79
2022/01/04 04:52:07;;;;;;;118.05;68.00;;;;;;;4.32;64.78;94965.41;4939794;29;20047;-79
2022/01/04 04:54:33;;;;;;;118.93;67.80;;;;;;;4.28;65.39;94966.75;4915899;29;20035;-80
2022/01/04 04:56:58;;;;;;;147.98;76.18;;;;;;;4.35;65.82;94973.53;4913878;29;20031;-80
2022/01/04 04:59:29;;;;;;;165.63;88.40;;;;;;;4.30;65.24;94973.31;4931357;29;20035;-80
2022/01/04 05:01:54;;;;;;;119.03;71.20;;;;;;;4.27;65.28;94978.06;4931005;29;20067;-80
2022/01/04 05:04:20;;;;;;;114.60;64.03;;;;;;;4.32;65.69;94979.06;4933712;29;20042;-79
2022/01/04 05:06:46;;;;;;;118.88;73.07;;;;;;;4.37;65.73;94978.50;4931757;29;20035;-80
2022/01/04 05:09:12;;;;;;;124.25;71.35;;;;;;;4.27;65.90;94978.06;4932368;29;20059;-80
2022/01/04 05:11:37;;;;;;;131.40;76.07;;;;;;;4.33;66.44;94977.28;4932646;29;20035;-81
2022/01/04 05:16:33;;;;;;;134.57;80.85;;;;;;;4.37;65.66;94974.13;4898896;29;20049;-81
2022/01/04 05:18:58;;;;;;;192.63;107.35;;;;;;;4.35;64.97;94976.09;4906548;29;20095;-80
2022/01/04 05:21:26;;;;;;;189.75;111.57;;;;;;;4.34;64.42;94974.53;4894402;29;20505;-81
2022/01/04 05:23:54;;;;;;;211.15;121.22;;;;;;;4.36;64.12;94975.13;4900330;29;20037;-79
2022/01/04 05:26:19;;;;;;;191.00;113.93;;;;;;;4.28;64.20;94964.19;4892728;29;20504;-80
2022/01/04 05:28:45;;;;;;;187.95;111.97;;;;;;;4.29;64.11;94958.06;4910007;29;20102;-80
2022/01/04 05:31:12;;;;;;;250.52;137.98;;;;;;;4.28;64.76;94966.75;4892792;29;20116;-79
2022/01/04 05:33:37;;;;;;;294.85;159.40;;;;;;;4.24;65.06;94963.00;4911000;29;20040;-80
2022/01/04 05:36:03;;;;;;;252.90;142.15;;;;;;;4.24;65.18;94963.00;4893863;29;20140;-80
2022/01/04 05:38:28;;;;;;;217.85;124.32;;;;;;;4.22;65.13;94966.50;4891624;29;20048;-80
2022/01/04 05:40:54;;;;;;;194.57;110.70;;;;;;;4.13;65.77;94959.94;4891775;29;20032;-80
2022/01/04 05:43:19;;;;;;;182.68;111.68;;;;;;;4.23;65.30;94962.19;4890472;29;20040;-79
2022/01/04 05:45:45;;;;;;;200.43;115.63;;;;;;;4.15;66.04;94965.69;4910487;29;20032;-79
2022/01/04 05:48:10;;;;;;;205.82;122.18;;;;;;;4.14;65.36;94964.09;4892254;29;20454;-79
2022/01/04 05:50:38;;;;;;;209.63;116.93;;;;;;;4.16;65.77;94959.56;4909728;29;20060;-82
2022/01/04 05:53:03;;;;;;;237.60;137.15;;;;;;;4.23;65.49;94951.91;4877568;29;20432;-80
2022/01/04 05:55:29;;;;;;;229.82;138.57;;;;;;;4.27;65.12;94952.31;4910104;29;20025;-79
2022/01/04 05:57:54;;;;;;;283.75;168.70;;;;;;;4.26;65.81;94958.44;4892442;29;20032;-80
2022/01/04 06:00:20;;;;;;;259.08;154.68;;;;;;;4.30;65.62;94957.88;4914515;29;20481;-79
2022/01/04 06:02:45;;;;;;;251.90;151.55;;;;;;;4.24;65.38;94955.28;4916656;29;20028;-80
2022/01/04 06:05:10;;;;;;;240.40;143.38;;;;;;;4.29;65.75;94960.63;4892340;29;20044;-80
2022/01/04 06:07:36;;;;;;;251.90;144.55;;;;;;;4.39;64.55;94953.34;4895833;29;20039;-79
2022/01/04 06:10:07;;;;;;;290.70;161.07;;;;;;;4.41;64.99;94959.91;4901637;29;20036;-79
2022/01/04 06:15:08;;;;;;;322.88;176.23;;;;;;;4.44;64.08;94954.38;4896749;29;20047;-79
2022/01/04 06:17:44;;;;;;;290.60;154.68;;;;;;;4.43;64.86;94957.94;4932667;29;20048;-78
2022/01/04 06:20:14;;;;;;;275.92;149.40;;;;;;;4.46;65.05;94961.91;4919925;29;20055;-78
2022/01/04 06:22:40;;;;;;;253.23;135.07;;;;;;;4.38;65.24;94954.34;4912634;29;20546;-79
2022/01/04 06:25:11;;;;;;;219.65;122.03;;;;;;;4.48;64.87;94954.78;4898874;29;20046;-79
2022/01/04 06:27:36;;;;;;;178.00;94.72;;;;;;;4.56;64.80;94944.34;4908151;29;20028;-79
2022/01/04 06:30:03;;;;;;;138.77;72.18;;;;;;;4.59;64.47;94946.53;4907560;29;20047;-79
2022/01/04 06:32:29;;;;;;;84.05;45.05;;;;;;;4.65;63.79;94940.63;4916112;29;20036;-79
2022/01/04 06:34:54;;;;;;;78.38;43.05;;;;;;;4.76;64.34;94942.66;4901717;29;20043;-79
2022/01/04 06:37:22;;;;;;;101.57;59.88;;;;;;;4.87;63.77;94940.50;4893577;29;20203;-79
2022/01/04 06:39:48;;;;;;;54.20;31.05;;;;;;;4.85;63.78;94939.88;4891369;29;20072;-79
2022/01/04 06:42:13;;;;;;;57.40;26.90;;;;;;;4.83;64.14;94943.47;4901370;29;20066;-79
2022/01/04 06:44:41;;;;;;;58.65;27.33;;;;;;;4.83;63.95;94946.03;4916723;29;20044;-78
2022/01/04 06:47:06;;;;;;;61.80;32.67;;;;;;;4.88;64.04;94954.97;4879293;29;20037;-79
2022/01/04 06:49:32;;;;;;;68.05;37.00;;;;;;;4.75;64.42;94938.50;4894429;29;20040;-79
2022/01/04 06:51:57;;;;;;;78.13;39.40;;;;;;;4.64;64.67;94933.88;4899583;29;20045;-80
2022/01/04 06:54:23;;;;;;;78.45;41.13;;;;;;;4.59;64.58;94938.81;4909625;29;20077;-79
2022/01/04 06:56:50;;;;;;;73.30;40.28;;;;;;;4.53;64.90;94936.97;4892948;29;20062;-79
2022/01/04 06:59:16;;;;;;;65.55;35.40;;;;;;;4.57;65.41;94942.56;4899699;29;20056;-79
2022/01/04 07:01:42;;;;;;;69.97;38.15;;;;;;;4.66;65.02;94942.19;4878321;29;20101;-80
2022/01/04 07:04:08;;;;;;;66.75;37.83;;;;;;;4.77;64.42;94951.97;4891810;29;20028;-79
2022/01/04 07:06:33;;;;;;;88.88;40.13;;;;;;;4.92;64.12;94961.34;4908847;29;20138;-79
2022/01/04 07:08:59;;;;;;;81.50;39.58;;;;;;;5.06;64.06;94962.97;4891645;29;20485;-79
2022/01/04 07:11:25;;;;;;;71.85;40.25;;;;;;;5.24;62.51;94962.44;4890630;29;20104;-79
2022/01/04 07:13:50;;;;;;;73.32;40.55;;;;;;;5.39;64.45;94956.13;4907875;29;20029;-80
2022/01/04 07:16:16;;;;;;;82.38;43.75;;;;;;;5.55;62.75;94951.56;4894226;29;20095;-80
2022/01/04 07:18:46;;;;;;;73.70;40.33;;;;;;;5.72;61.98;94963.09;4900079;29;20025;-79
2022/01/04 07:21:12;;;;;;;66.40;38.88;;;;;;;5.88;61.08;94960.13;4877747;29;20060;-79
2022/01/04 07:23:38;;;;;;;77.97;40.38;;;;;;;6.01;60.47;94952.38;4893361;29;20033;-78
2022/01/04 07:26:03;;;;;;;83.15;38.45;;;;;;;6.12;60.28;94958.75;4901569;29;20055;-79
2022/01/04 07:28:28;;;;;;;82.70;40.92;;;;;;;6.28;60.77;94947.22;4920720;29;20047;-78
2022/01/04 07:30:54;;;;;;;68.05;38.25;;;;;;;6.43;60.27;94945.19;4894778;29;20080;-78
2022/01/04 07:33:19;;;;;;;76.00;40.70;;;;;;;6.63;59.08;94940.75;4902286;29;20412;-79
2022/01/04 07:35:48;;;;;;;67.95;38.30;;;;;;;6.79;58.72;94946.47;4890444;29;20489;-79
2022/01/04 07:38:13;;;;;;;72.30;39.72;;;;;;;6.85;57.33;94945.66;4878231;29;20061;-79
2022/01/04 07:40:39;;;;;;;69.00;39.47;;;;;;;6.87;57.19;94951.41;4883786;29;20534;-80
2022/01/04 07:43:05;;;;;;;69.28;37.72;;;;;;;6.93;57.49;94942.84;4894234;29;20043;-78
2022/01/04 07:45:31;;;;;;;77.72;41.05;;;;;;;6.99;56.60;94941.22;4892327;29;20505;-78
2022/01/04 07:47:59;;;;;;;84.20;42.22;;;;;;;7.05;57.41;94943.78;4895310;29;20485;-81
2022/01/04 07:50:25;;;;;;;76.32;42.13;;;;;;;7.13;57.23;94940.94;4894933;29;20103;-80
2022/01/04 07:52:50;;;;;;;73.18;40.80;;;;;;;7.22;56.21;94952.66;4913469;29;20036;-78
2022/01/04 07:55:16;;;;;;;67.85;34.90;;;;;;;7.24;56.45;94957.59;4888032;29;20556;-82
2022/01/04 07:57:43;;;;;;;59.97;33.97;;;;;;;7.27;56.41;94951.22;4895719;29;20035;-81
2022/01/04 08:00:11;;;;;;;57.60;33.15;;;;;;;7.29;57.13;94949.22;4897230;29;20524;-82
2022/01/04 08:02:38;;;;;;;54.10;30.42;;;;;;;7.37;56.78;94956.75;4919455;29;20035;-82
2022/01/04 08:05:05;;;;;;;54.78;26.80;;;;;;;7.41;56.56;94947.56;4905602;29;20115;-83
2022/01/04 08:07:30;;;;;;;46.47;27.13;;;;;;;7.45;57.49;94938.38;4904453;29;20029;-84
2022/01/04 08:09:56;;;;;;;49.45;27.77;;;;;;;7.50;56.65;94943.75;4905138;29;20321;-83
2022/01/04 08:12:22;;;;;;;45.45;28.10;;;;;;;7.57;56.60;94941.88;4904531;29;20033;-81
2022/01/04 08:14:48;;;;;;;51.95;29.63;;;;;;;7.69;56.10;94945.41;4890434;29;20039;-83
2022/01/04 08:17:14;;;;;;;59.60;33.08;;;;;;;7.76;56.16;94946.13;4913733;29;20040;-82
2022/01/04 08:19:39;;;;;;;67.50;33.28;;;;;;;7.90;55.56;94935.69;4916406;29;20036;-84
2022/01/04 08:22:07;;;;;;;56.42;34.30;;;;;;;8.02;55.43;94936.56;4882707;29;20565;-82
2022/01/04 08:24:32;;;;;;;56.67;31.02;;;;;;;8.15;55.52;94936.47;4895889;29;20036;-82
2022/01/04 08:26:58;;;;;;;54.30;29.77;;;;;;;8.26;54.44;94930.56;4896650;29;20115;-81
2022/01/04 08:29:24;;;;;;;51.28;27.40;;;;;;;8.38;54.15;94939.25;4901261;29;20534;-81
2022/01/04 08:31:50;;;;;;;51.47;27.83;;;;;;;8.43;54.06;94934.22;4914250;29;20082;-82
2022/01/04 08:34:15;;;;;;;41.42;24.17;;;;;;;8.47;53.67;94931.22;4896230;29;20104;-80
2022/01/04 08:36:41;;;;;;;52.80;24.45;;;;;;;8.46;53.14;94922.66;4911607;29;20048;-79
2022/01/04 08:39:14;;;;;;;52.08;24.88;;;;;;;8.46;54.03;94914.03;4912618;29;20473;-79
2022/01/04 08:41:45;;;;;;;48.45;25.33;;;;;;;8.55;54.31;94907.59;4911395;29;20128;-87
2022/01/04 08:44:11;;;;;;;45.65;26.48;;;;;;;8.62;53.75;94913.47;5390887;24;20048;-79
2022/01/04 08:46:36;;;;;;;38.10;24.05;;;;;;;8.68;53.88;94907.44;4930977;29;20087;-79
2022/01/04 08:49:07;;;;;;;41.72;23.55;;;;;;;8.68;53.11;94918.59;4909222;29;20043;-79
2022/01/04 08:51:33;;;;;;;44.83;25.55;;;;;;;8.67;53.41;94917.03;4936733;29;20068;-79
2022/01/04 08:54:01;;;;;;;45.00;25.05;;;;;;;8.52;53.19;94918.38;4920563;29;20111;-79
2022/01/04 08:56:29;;;;;;;50.35;27.20;;;;;;;8.51;54.19;94927.97;4921804;29;20056;-79
2022/01/04 08:58:55;;;;;;;45.83;25.70;;;;;;;8.52;53.85;94919.19;4904103;29;20465;-80
2022/01/04 09:01:23;;;;;;;43.35;23.13;;;;;;;8.57;54.27;94910.75;4918906;29;20040;-81
2022/01/04 09:03:49;;;;;;;42.40;24.05;;;;;;;8.55;54.32;94907.59;4903261;29;20507;-81
2022/01/04 09:06:15;;;;;;;45.38;23.60;;;;;;;8.41;54.82;94918.09;4920963;29;20032;-79
2022/01/04 09:08:41;;;;;;;42.75;22.80;;;;;;;8.42;54.38;94909.31;4919968;29;20036;-79
2022/01/04 09:11:06;;;;;;;46.47;23.55;;;;;;;8.39;55.24;94909.75;4903581;29;20402;-78
2022/01/04 09:13:37;;;;;;;41.25;23.77;;;;;;;8.48;56.43;94901.69;4920415;29;20040;-79
2022/01/04 09:18:48;;;;;;;37.70;23.30;;;;;;;8.57;55.48;94890.00;4919792;29;20503;-80
2022/01/04 09:21:23;;;;;;;39.90;24.40;;;;;;;8.56;55.99;94888.44;4919849;29;20045;-79
2022/01/04 09:23:48;;;;;;;50.25;25.20;;;;;;;8.71;55.52;94873.31;4917110;29;20040;-79
2022/01/04 09:26:17;;;;;;;41.83;22.73;;;;;;;8.78;54.99;94871.41;4911257;29;20132;-80
2022/01/04 09:28:43;;;;;;;36.88;23.23;;;;;;;8.90;55.60;94861.09;4903577;29;20040;-80
2022/01/04 09:31:08;;;;;;;62.42;35.17;;;;;;;8.99;54.98;94860.56;4918014;29;20039;-80
2022/01/04 09:33:34;;;;;;;36.10;21.70;;;;;;;9.02;54.30;94852.34;4919364;29;20036;-80
2022/01/04 09:36:00;;;;;;;40.13;21.20;;;;;;;9.08;53.68;94842.88;4919205;29;20679;-80
2022/01/04 09:38:25;;;;;;;41.65;25.33;;;;;;;9.14;54.43;94839.41;4936365;29;20058;-80
2022/01/04 09:40:51;;;;;;;40.03;23.70;;;;;;;9.19;54.12;94838.75;4920151;29;20032;-80
2022/01/04 09:43:20;;;;;;;43.72;24.60;;;;;;;9.21;54.16;94840.09;4919177;29;20040;-80
2022/01/04 09:45:48;;;;;;;47.25;26.10;;;;;;;9.29;54.08;94831.22;4919793;29;20094;-80
2022/01/04 09:48:14;;;;;;;49.53;28.67;;;;;;;9.42;53.84;94832.81;4917533;29;20036;-80
2022/01/04 09:50:39;;;;;;;64.63;28.10;;;;;;;9.50;53.90;94822.09;4920071;29;20115;-80
2022/01/04 09:53:06;;;;;;;56.70;28.48;;;;;;;9.51;52.93;94814.09;4903963;29;20028;-80
2022/01/04 09:55:34;;;;;;;49.53;25.05;;;;;;;9.55;53.13;94817.81;4935823;29;20046;-80
2022/01/04 09:57:59;;;;;;;41.17;24.35;;;;;;;9.65;53.11;94811.28;4903650;29;20040;-80
2022/01/04 10:00:25;;;;;;;40.20;23.77;;;;;;;9.65;53.32;94796.50;4934022;29;20036;-81
2022/01/04 10:02:50;;;;;;;38.95;23.70;;;;;;;9.73;52.25;94790.16;4920412;29;20072;-80
2022/01/04 10:05:23;;;;;;;42.42;22.73;;;;;;;9.75;52.15;94785.53;4916708;29;20048;-80
2022/01/04 10:08:01;;;;;;;42.90;22.30;;;;;;;9.81;52.40;94787.22;4918715;29;20098;-79
2022/01/04 10:10:26;;;;;;;30.60;18.55;;;;;;;9.85;51.86;94783.16;4934183;29;20036;-80
2022/01/04 10:12:53;;;;;;;35.50;19.83;;;;;;;9.92;51.67;94774.25;4919288;29;20552;-79
2022/01/04 10:15:59;;;;;;;38.92;23.10;;;;;;;9.93;52.00;94769.84;4919051;29;20040;-80
2022/01/04 10:18:25;;;;;;;49.05;22.80;;;;;;;9.93;51.78;94765.44;4855410;29;20799;-80
2022/01/04 10:20:52;;;;;;;43.60;22.88;;;;;;;9.95;51.44;94767.00;4861754;29;20125;-79
2022/01/04 10:23:22;;;;;;;40.85;23.85;;;;;;;9.97;51.91;94755.38;4883782;29;20055;-81
2022/01/04 10:25:48;;;;;;;42.08;22.40;;;;;;;9.93;50.99;94762.03;4924591;29;20182;-78
2022/01/04 10:28:32;;;;;;;40.05;22.10;;;;;;;10.03;51.48;94751.06;4915904;29;20103;-78
2022/01/04 10:31:02;;;;;;;33.42;19.50;;;;;;;9.88;50.96;94741.13;4917013;29;20540;-79
2022/01/04 10:33:28;;;;;;;31.45;19.35;;;;;;;9.78;51.17;94740.94;4913651;29;20078;-78
2022/01/04 10:35:54;;;;;;;32.22;19.27;;;;;;;9.84;51.25;94737.44;4914904;29;20028;-78
2022/01/04 10:38:27;;;;;;;32.95;20.65;;;;;;;9.87;51.84;94723.97;4917033;29;20032;-78
2022/01/04 10:41:00;;;;;;;;;;;;;;;9.82;51.34;94731.69;4930964;29;20043;-78
2022/01/04 10:43:28;;;;;;;33.08;19.00;;;;;;;9.85;51.00;94728.63;4931396;29;20303;-78
2022/01/04 10:45:53;;;;;;;35.78;20.70;;;;;;;9.88;51.19;94733.34;4899464;29;20139;-77
2022/01/04 10:48:22;;;;;;;41.67;21.05;;;;;;;9.92;51.33;94737.06;4916101;29;20036;-78
2022/01/04 10:51:09;;;;;;;29.50;18.42;;;;;;;10.02;50.68;94726.88;4930706;29;20039;-78
2022/01/04 10:53:49;;;;;;;33.78;20.10;;;;;;;9.89;51.89;94716.75;4916290;29;20048;-78
2022/01/04 10:56:16;;;;;;;30.05;20.23;;;;;;;10.02;51.38;94726.88;4923035;29;20143;-78
2022/01/04 10:58:46;;;;;;;28.23;17.13;;;;;;;10.13;50.69;94712.28;4912630;29;20047;-78
2022/01/04 11:01:26;;;;;;;35.53;16.55;;;;;;;10.04;50.67;94711.06;4928908;29;20469;-78
2022/01/04 11:04:00;;;;;;;32.78;17.45;;;;;;;9.91;51.32;94705.09;4928896;29;20050;-79
2022/01/04 11:06:29;;;;;;;34.17;17.85;;;;;;;9.69;51.78;94713.75;4912919;29;20393;-78
2022/01/04 11:08:57;;;;;;;35.60;18.33;;;;;;;9.75;51.39;94718.00;4915163;29;20043;-78
2022/01/04 11:11:22;;;;;;;36.53;19.38;;;;;;;9.87;51.47;94713.59;4914901;29;20037;-78
2022/01/04 11:13:51;;;;;;;32.55;17.42;;;;;;;9.95;50.79;94715.84;4930537;29;20472;-78
2022/01/04 11:16:18;;;;;;;26.27;18.17;;;;;;;9.87;50.90;94698.81;4898970;29;20036;-78
2022/01/04 11:18:46;;;;;;;26.50;16.52;;;;;;;9.75;51.26;94702.44;4914772;29;20040;-80
2022/01/04 11:21:13;;;;;;;27.85;16.98;;;;;;;9.65;51.59;94694.44;4916936;29;20092;-80
2022/01/04 11:23:38;;;;;;;39.20;18.35;;;;;;;9.65;51.95;94700.44;4902056;29;20043;-80
2022/01/04 11:26:04;;;;;;;32.65;18.25;;;;;;;9.79;51.27;94696.56;4901398;29;20040;-80
2022/01/04 11:28:29;;;;;;;37.33;18.27;;;;;;;9.90;50.36;94690.53;4917213;29;20505;-80
2022/01/04 11:31:16;;;;;;;53.33;20.00;;;;;;;10.01;51.42;94688.94;4902667;29;20043;-80
2022/01/04 11:33:45;;;;;;;43.83;19.90;;;;;;;10.09;50.51;94683.41;4929425;29;20051;-80
2022/01/04 11:36:15;;;;;;;32.42;17.85;;;;;;;10.13;50.14;94678.53;4931347;29;20102;-80